KPIR/PIR METAR and TAF weather

Enter ICAO airport designator
Station Type Date Time Source
KPIR METAR 2020/01/28 04:53 UTC NOAA

KPIR 280453Z AUTO 10003KT 10SM OVC012 M02/M03 A3009 RMK AO2 SLP210 T10171033


Station Type Date Time Source
KPIR Decoded METAR 2020/01/28 04:53 UTC NOAA

PIERRE REGIONAL AIRPORT, SD, United States (KPIR) 44-23N 100-17W 526M
Jan 27, 2020 - 11:53 PM EST / 2020.01.28 0453 UTC
Wind: from the E (100 degrees) at 3 MPH (3 KT):0
Visibility: 10 mile(s):0
Sky conditions: overcast
Temperature: 28.9 F (-1.7 C)
Dew Point: 26.1 F (-3.3 C)
Relative Humidity: 88%
Pressure (altimeter): 30.09 in. Hg (1018 hPa)
ob: KPIR 280453Z AUTO 10003KT 10SM OVC012 M02/M03 A3009 RMK AO2 SLP210 T10171033
cycle: 5

Station Type Date Time Source
KPIR TAF 2020/01/27 18:27 UTC NOAA

TAF KPIR 271725Z 2718/2818 00000KT P6SM BKN009 OVC015
FM272300 VRB03KT P6SM BKN022
FM280100 00000KT P6SM BKN018
FM281000 VRB03KT P6SM OVC009
FM281600 VRB04KT 6SM BR OVC011

Example: see airport list